sensor_id;sensor_type;location;lat;lon;timestamp;temperature;humidity
63017;DHT22;50274;45.640;11.756;2023-01-05T00:01:22;7.80;83.00
63017;DHT22;50274;45.640;11.756;2023-01-05T00:03:47;7.80;82.90
63017;DHT22;50274;45.640;11.756;2023-01-05T00:06:14;7.80;82.90
63017;DHT22;50274;45.640;11.756;2023-01-05T00:08:42;7.70;82.80
63017;DHT22;50274;45.640;11.756;2023-01-05T00:11:16;7.70;82.80
63017;DHT22;50274;45.640;11.756;2023-01-05T00:14:02;7.70;82.80
63017;DHT22;50274;45.640;11.756;2023-01-05T00:16:46;7.60;82.80
63017;DHT22;50274;45.640;11.756;2023-01-05T00:19:31;7.60;82.80
63017;DHT22;50274;45.640;11.756;2023-01-05T00:22:38;7.60;82.60
63017;DHT22;50274;45.640;11.756;2023-01-05T00:25:09;7.60;82.60
63017;DHT22;50274;45.640;11.756;2023-01-05T00:27:36;7.50;82.60
63017;DHT22;50274;45.640;11.756;2023-01-05T00:30:04;7.50;82.60
63017;DHT22;50274;45.640;11.756;2023-01-05T00:32:30;7.50;82.50
63017;DHT22;50274;45.640;11.756;2023-01-05T00:34:57;7.40;82.50
63017;DHT22;50274;45.640;11.756;2023-01-05T00:37:29;7.40;82.50
63017;DHT22;50274;45.640;11.756;2023-01-05T00:39:55;7.40;82.50
63017;DHT22;50274;45.640;11.756;2023-01-05T00:42:22;7.30;82.60
63017;DHT22;50274;45.640;11.756;2023-01-05T00:44:48;7.30;82.60
63017;DHT22;50274;45.640;11.756;2023-01-05T00:47:14;7.30;82.60
63017;DHT22;50274;45.640;11.756;2023-01-05T00:49:40;7.30;82.60
63017;DHT22;50274;45.640;11.756;2023-01-05T00:52:06;7.30;82.60
63017;DHT22;50274;45.640;11.756;2023-01-05T00:54:32;7.30;82.60
63017;DHT22;50274;45.640;11.756;2023-01-05T00:56:58;7.30;82.60
63017;DHT22;50274;45.640;11.756;2023-01-05T00:59:24;7.30;82.50
63017;DHT22;50274;45.640;11.756;2023-01-05T01:01:51;7.30;82.50
63017;DHT22;50274;45.640;11.756;2023-01-05T01:04:18;7.30;82.50
63017;DHT22;50274;45.640;11.756;2023-01-05T01:06:44;7.30;82.50
63017;DHT22;50274;45.640;11.756;2023-01-05T01:09:10;7.30;82.40
63017;DHT22;50274;45.640;11.756;2023-01-05T01:11:37;7.30;82.40
63017;DHT22;50274;45.640;11.756;2023-01-05T01:14:04;7.20;82.30
63017;DHT22;50274;45.640;11.756;2023-01-05T01:16:30;7.20;82.30
63017;DHT22;50274;45.640;11.756;2023-01-05T01:18:56;7.20;82.30
63017;DHT22;50274;45.640;11.756;2023-01-05T01:21:22;7.20;82.10
63017;DHT22;50274;45.640;11.756;2023-01-05T01:23:48;7.20;81.90
63017;DHT22;50274;45.640;11.756;2023-01-05T01:26:14;7.10;81.90
63017;DHT22;50274;45.640;11.756;2023-01-05T01:28:40;7.10;82.00
63017;DHT22;50274;45.640;11.756;2023-01-05T01:31:05;7.00;81.90
63017;DHT22;50274;45.640;11.756;2023-01-05T01:33:43;7.00;82.10
63017;DHT22;50274;45.640;11.756;2023-01-05T01:36:29;7.00;82.10
63017;DHT22;50274;45.640;11.756;2023-01-05T01:39:13;7.00;82.10
63017;DHT22;50274;45.640;11.756;2023-01-05T01:41:55;7.00;82.10
63017;DHT22;50274;45.640;11.756;2023-01-05T01:44:45;7.00;82.20
63017;DHT22;50274;45.640;11.756;2023-01-05T01:49:52;6.90;82.20
63017;DHT22;50274;45.640;11.756;2023-01-05T01:52:20;7.00;82.30
63017;DHT22;50274;45.640;11.756;2023-01-05T01:54:47;6.90;82.30
63017;DHT22;50274;45.640;11.756;2023-01-05T01:57:15;6.90;82.30
63017;DHT22;50274;45.640;11.756;2023-01-05T01:59:41;6.90;82.30
63017;DHT22;50274;45.640;11.756;2023-01-05T02:02:07;7.00;82.40
63017;DHT22;50274;45.640;11.756;2023-01-05T02:04:35;7.00;82.40
63017;DHT22;50274;45.640;11.756;2023-01-05T02:07:03;7.00;82.40
63017;DHT22;50274;45.640;11.756;2023-01-05T02:09:29;7.00;82.30
63017;DHT22;50274;45.640;11.756;2023-01-05T02:12:22;7.00;82.30
63017;DHT22;50274;45.640;11.756;2023-01-05T02:23:36;7.00;82.20
63017;DHT22;50274;45.640;11.756;2023-01-05T02:26:54;7.00;82.20
63017;DHT22;50274;45.640;11.756;2023-01-05T02:35:37;7.00;82.10
63017;DHT22;50274;45.640;11.756;2023-01-05T02:38:09;7.00;82.10
63017;DHT22;50274;45.640;11.756;2023-01-05T02:40:42;7.00;82.10
63017;DHT22;50274;45.640;11.756;2023-01-05T02:43:11;7.00;82.10
63017;DHT22;50274;45.640;11.756;2023-01-05T02:45:38;7.00;82.10
63017;DHT22;50274;45.640;11.756;2023-01-05T02:48:03;7.00;82.10
63017;DHT22;50274;45.640;11.756;2023-01-05T02:50:57;7.00;82.10
63017;DHT22;50274;45.640;11.756;2023-01-05T02:55:59;7.00;82.10
63017;DHT22;50274;45.640;11.756;2023-01-05T02:58:30;7.00;82.10
63017;DHT22;50274;45.640;11.756;2023-01-05T03:01:01;7.00;82.10
63017;DHT22;50274;45.640;11.756;2023-01-05T03:03:51;7.00;82.10
63017;DHT22;50274;45.640;11.756;2023-01-05T03:06:46;7.00;82.10
63017;DHT22;50274;45.640;11.756;2023-01-05T03:09:15;7.00;82.10
63017;DHT22;50274;45.640;11.756;2023-01-05T03:15:19;7.00;82.20
63017;DHT22;50274;45.640;11.756;2023-01-05T03:17:51;7.00;82.30
63017;DHT22;50274;45.640;11.756;2023-01-05T03:20:22;7.00;82.40
63017;DHT22;50274;45.640;11.756;2023-01-05T03:22:49;7.00;82.40
63017;DHT22;50274;45.640;11.756;2023-01-05T03:25:37;7.00;82.50
63017;DHT22;50274;45.640;11.756;2023-01-05T03:28:43;7.00;82.50
63017;DHT22;50274;45.640;11.756;2023-01-05T03:31:38;7.00;82.60
63017;DHT22;50274;45.640;11.756;2023-01-05T03:37:27;7.10;82.70
63017;DHT22;50274;45.640;11.756;2023-01-05T03:39:55;7.10;82.70
63017;DHT22;50274;45.640;11.756;2023-01-05T03:42:22;7.10;82.80
63017;DHT22;50274;45.640;11.756;2023-01-05T03:44:48;7.10;82.90
63017;DHT22;50274;45.640;11.756;2023-01-05T03:47:14;7.00;82.90
63017;DHT22;50274;45.640;11.756;2023-01-05T03:49:40;7.10;82.90
63017;DHT22;50274;45.640;11.756;2023-01-05T03:52:06;7.10;83.00
63017;DHT22;50274;45.640;11.756;2023-01-05T03:54:32;7.00;83.00
63017;DHT22;50274;45.640;11.756;2023-01-05T03:56:58;7.00;83.00
63017;DHT22;50274;45.640;11.756;2023-01-05T03:59:24;7.00;83.00
63017;DHT22;50274;45.640;11.756;2023-01-05T04:01:49;7.00;83.00
63017;DHT22;50274;45.640;11.756;2023-01-05T04:04:15;7.00;83.10
63017;DHT22;50274;45.640;11.756;2023-01-05T04:06:41;7.00;83.10
63017;DHT22;50274;45.640;11.756;2023-01-05T04:09:07;7.00;83.10
63017;DHT22;50274;45.640;11.756;2023-01-05T04:11:32;7.00;83.10
63017;DHT22;50274;45.640;11.756;2023-01-05T04:13:58;7.00;83.10
63017;DHT22;50274;45.640;11.756;2023-01-05T04:16:24;7.00;83.20
63017;DHT22;50274;45.640;11.756;2023-01-05T04:18:50;6.90;83.20
63017;DHT22;50274;45.640;11.756;2023-01-05T04:21:16;6.90;83.20
63017;DHT22;50274;45.640;11.756;2023-01-05T04:23:41;6.90;83.30
63017;DHT22;50274;45.640;11.756;2023-01-05T04:26:07;6.90;83.30
63017;DHT22;50274;45.640;11.756;2023-01-05T04:28:33;6.90;83.20
63017;DHT22;50274;45.640;11.756;2023-01-05T04:30:59;6.90;83.20
63017;DHT22;50274;45.640;11.756;2023-01-05T04:33:25;6.90;83.20
63017;DHT22;50274;45.640;11.756;2023-01-05T04:35:51;6.90;83.20
63017;DHT22;50274;45.640;11.756;2023-01-05T04:38:17;6.80;83.20
63017;DHT22;50274;45.640;11.756;2023-01-05T04:40:50;6.80;83.20
63017;DHT22;50274;45.640;11.756;2023-01-05T04:43:17;6.80;83.10
63017;DHT22;50274;45.640;11.756;2023-01-05T04:45:45;6.80;83.10
63017;DHT22;50274;45.640;11.756;2023-01-05T04:48:12;6.80;83.10
63017;DHT22;50274;45.640;11.756;2023-01-05T04:50:38;6.80;83.10
63017;DHT22;50274;45.640;11.756;2023-01-05T04:53:04;6.70;83.10
63017;DHT22;50274;45.640;11.756;2023-01-05T04:55:29;6.70;83.10
63017;DHT22;50274;45.640;11.756;2023-01-05T04:57:55;6.80;83.10
63017;DHT22;50274;45.640;11.756;2023-01-05T05:00:21;6.70;83.10
63017;DHT22;50274;45.640;11.756;2023-01-05T05:02:48;6.70;83.00
63017;DHT22;50274;45.640;11.756;2023-01-05T05:05:14;6.70;83.10
63017;DHT22;50274;45.640;11.756;2023-01-05T05:07:39;6.70;83.00
63017;DHT22;50274;45.640;11.756;2023-01-05T05:10:06;6.70;83.00
63017;DHT22;50274;45.640;11.756;2023-01-05T05:12:32;6.70;83.00
63017;DHT22;50274;45.640;11.756;2023-01-05T05:14:57;6.70;83.00
63017;DHT22;50274;45.640;11.756;2023-01-05T05:17:23;6.70;82.90
63017;DHT22;50274;45.640;11.756;2023-01-05T05:19:49;6.60;83.00
63017;DHT22;50274;45.640;11.756;2023-01-05T05:22:15;6.60;83.00
63017;DHT22;50274;45.640;11.756;2023-01-05T05:24:41;6.60;82.90
63017;DHT22;50274;45.640;11.756;2023-01-05T05:27:06;6.60;82.90
63017;DHT22;50274;45.640;11.756;2023-01-05T05:29:32;6.60;83.00
63017;DHT22;50274;45.640;11.756;2023-01-05T05:31:58;6.60;83.00
63017;DHT22;50274;45.640;11.756;2023-01-05T05:34:24;6.60;83.00
63017;DHT22;50274;45.640;11.756;2023-01-05T05:36:50;6.50;83.00
63017;DHT22;50274;45.640;11.756;2023-01-05T05:39:15;6.60;83.10
63017;DHT22;50274;45.640;11.756;2023-01-05T05:41:41;6.50;83.10
63017;DHT22;50274;45.640;11.756;2023-01-05T05:44:07;6.50;83.10
63017;DHT22;50274;45.640;11.756;2023-01-05T05:46:33;6.50;83.00
63017;DHT22;50274;45.640;11.756;2023-01-05T05:48:59;6.50;83.00
63017;DHT22;50274;45.640;11.756;2023-01-05T05:51:26;6.50;83.00
63017;DHT22;50274;45.640;11.756;2023-01-05T05:53:52;6.50;83.00
63017;DHT22;50274;45.640;11.756;2023-01-05T05:56:18;6.50;83.00
63017;DHT22;50274;45.640;11.756;2023-01-05T05:58:44;6.50;83.00
63017;DHT22;50274;45.640;11.756;2023-01-05T06:01:10;6.50;83.00
63017;DHT22;50274;45.640;11.756;2023-01-05T06:03:36;6.50;83.00
63017;DHT22;50274;45.640;11.756;2023-01-05T06:06:02;6.50;82.90
63017;DHT22;50274;45.640;11.756;2023-01-05T06:08:28;6.40;82.90
63017;DHT22;50274;45.640;11.756;2023-01-05T06:10:55;6.40;82.90
63017;DHT22;50274;45.640;11.756;2023-01-05T06:13:21;6.40;82.90
63017;DHT22;50274;45.640;11.756;2023-01-05T06:15:47;6.40;82.90
63017;DHT22;50274;45.640;11.756;2023-01-05T06:18:13;6.40;82.90
63017;DHT22;50274;45.640;11.756;2023-01-05T06:20:39;6.40;82.90
63017;DHT22;50274;45.640;11.756;2023-01-05T06:23:05;6.40;82.90
63017;DHT22;50274;45.640;11.756;2023-01-05T06:25:31;6.40;82.90
63017;DHT22;50274;45.640;11.756;2023-01-05T06:27:57;6.40;82.80
63017;DHT22;50274;45.640;11.756;2023-01-05T06:30:23;6.40;82.90
63017;DHT22;50274;45.640;11.756;2023-01-05T06:32:49;6.40;82.90
63017;DHT22;50274;45.640;11.756;2023-01-05T06:35:15;6.40;82.90
63017;DHT22;50274;45.640;11.756;2023-01-05T06:37:41;6.40;82.90
63017;DHT22;50274;45.640;11.756;2023-01-05T06:40:07;6.40;82.90
63017;DHT22;50274;45.640;11.756;2023-01-05T06:42:36;6.40;82.90
63017;DHT22;50274;45.640;11.756;2023-01-05T06:45:02;6.40;82.90
63017;DHT22;50274;45.640;11.756;2023-01-05T06:47:28;6.40;82.90
63017;DHT22;50274;45.640;11.756;2023-01-05T06:49:54;6.40;83.00
63017;DHT22;50274;45.640;11.756;2023-01-05T06:52:20;6.40;83.00
63017;DHT22;50274;45.640;11.756;2023-01-05T06:54:46;6.40;83.10
63017;DHT22;50274;45.640;11.756;2023-01-05T06:57:12;6.40;83.10
63017;DHT22;50274;45.640;11.756;2023-01-05T06:59:38;6.50;83.10
63017;DHT22;50274;45.640;11.756;2023-01-05T07:02:04;6.50;83.10
63017;DHT22;50274;45.640;11.756;2023-01-05T07:04:30;6.50;83.00
63017;DHT22;50274;45.640;11.756;2023-01-05T07:06:56;6.50;83.00
63017;DHT22;50274;45.640;11.756;2023-01-05T07:09:22;6.50;83.00
63017;DHT22;50274;45.640;11.756;2023-01-05T07:11:48;6.50;83.00
63017;DHT22;50274;45.640;11.756;2023-01-05T07:14:13;6.50;83.00
63017;DHT22;50274;45.640;11.756;2023-01-05T07:16:40;6.50;83.10
63017;DHT22;50274;45.640;11.756;2023-01-05T07:19:06;6.50;83.10
63017;DHT22;50274;45.640;11.756;2023-01-05T07:21:32;6.50;83.10
63017;DHT22;50274;45.640;11.756;2023-01-05T07:23:57;6.50;83.00
63017;DHT22;50274;45.640;11.756;2023-01-05T07:26:23;6.50;83.10
63017;DHT22;50274;45.640;11.756;2023-01-05T07:28:49;6.50;83.00
63017;DHT22;50274;45.640;11.756;2023-01-05T07:31:15;6.60;83.10
63017;DHT22;50274;45.640;11.756;2023-01-05T07:33:41;6.60;83.00
63017;DHT22;50274;45.640;11.756;2023-01-05T07:36:07;6.60;82.90
63017;DHT22;50274;45.640;11.756;2023-01-05T07:38:33;6.60;82.90
63017;DHT22;50274;45.640;11.756;2023-01-05T07:40:59;6.70;82.90
63017;DHT22;50274;45.640;11.756;2023-01-05T07:43:26;6.60;82.80
63017;DHT22;50274;45.640;11.756;2023-01-05T07:45:56;6.60;82.80
63017;DHT22;50274;45.640;11.756;2023-01-05T07:48:22;6.60;82.80
63017;DHT22;50274;45.640;11.756;2023-01-05T07:50:48;6.60;82.80
63017;DHT22;50274;45.640;11.756;2023-01-05T07:53:14;6.60;82.70
63017;DHT22;50274;45.640;11.756;2023-01-05T07:55:39;6.60;82.70
63017;DHT22;50274;45.640;11.756;2023-01-05T07:58:05;6.60;82.70
63017;DHT22;50274;45.640;11.756;2023-01-05T08:00:31;6.60;82.70
63017;DHT22;50274;45.640;11.756;2023-01-05T08:02:57;6.60;82.70
63017;DHT22;50274;45.640;11.756;2023-01-05T08:05:22;6.70;82.80
63017;DHT22;50274;45.640;11.756;2023-01-05T08:07:48;6.70;82.70
63017;DHT22;50274;45.640;11.756;2023-01-05T08:10:14;6.70;82.80
63017;DHT22;50274;45.640;11.756;2023-01-05T08:13:01;6.70;82.80
63017;DHT22;50274;45.640;11.756;2023-01-05T08:15:45;6.70;82.80
63017;DHT22;50274;45.640;11.756;2023-01-05T08:18:11;6.70;82.80
63017;DHT22;50274;45.640;11.756;2023-01-05T08:20:37;6.70;82.80
63017;DHT22;50274;45.640;11.756;2023-01-05T08:23:02;6.80;82.80
63017;DHT22;50274;45.640;11.756;2023-01-05T08:25:28;6.80;82.90
63017;DHT22;50274;45.640;11.756;2023-01-05T08:27:54;6.80;82.80
63017;DHT22;50274;45.640;11.756;2023-01-05T08:30:20;6.90;82.80
63017;DHT22;50274;45.640;11.756;2023-01-05T08:32:46;7.00;82.80
63017;DHT22;50274;45.640;11.756;2023-01-05T08:35:11;7.00;82.80
63017;DHT22;50274;45.640;11.756;2023-01-05T08:37:37;7.00;82.80
63017;DHT22;50274;45.640;11.756;2023-01-05T08:40:04;7.00;82.80
63017;DHT22;50274;45.640;11.756;2023-01-05T08:42:30;7.10;82.70
63017;DHT22;50274;45.640;11.756;2023-01-05T08:44:56;7.10;82.60
63017;DHT22;50274;45.640;11.756;2023-01-05T08:47:22;7.20;82.60
63017;DHT22;50274;45.640;11.756;2023-01-05T08:49:47;7.30;82.60
63017;DHT22;50274;45.640;11.756;2023-01-05T08:52:14;7.30;82.70
63017;DHT22;50274;45.640;11.756;2023-01-05T08:54:40;7.30;82.60
63017;DHT22;50274;45.640;11.756;2023-01-05T08:57:05;7.30;82.60
63017;DHT22;50274;45.640;11.756;2023-01-05T08:59:31;7.40;82.60
63017;DHT22;50274;45.640;11.756;2023-01-05T09:01:57;7.40;82.70
63017;DHT22;50274;45.640;11.756;2023-01-05T09:04:26;7.40;82.60
63017;DHT22;50274;45.640;11.756;2023-01-05T09:06:52;7.50;82.60
63017;DHT22;50274;45.640;11.756;2023-01-05T09:09:18;7.60;82.70
63017;DHT22;50274;45.640;11.756;2023-01-05T09:11:44;7.70;82.60
63017;DHT22;50274;45.640;11.756;2023-01-05T09:14:11;7.70;82.60
63017;DHT22;50274;45.640;11.756;2023-01-05T09:16:39;7.80;82.60
63017;DHT22;50274;45.640;11.756;2023-01-05T09:19:05;8.00;82.50
63017;DHT22;50274;45.640;11.756;2023-01-05T09:21:31;8.20;82.30
63017;DHT22;50274;45.640;11.756;2023-01-05T09:23:57;8.40;82.20
63017;DHT22;50274;45.640;11.756;2023-01-05T09:26:23;8.60;82.00
63017;DHT22;50274;45.640;11.756;2023-01-05T09:28:49;8.70;82.00
63017;DHT22;50274;45.640;11.756;2023-01-05T09:31:18;8.80;82.00
63017;DHT22;50274;45.640;11.756;2023-01-05T09:33:44;9.00;82.00
63017;DHT22;50274;45.640;11.756;2023-01-05T09:36:12;9.00;81.80
63017;DHT22;50274;45.640;11.756;2023-01-05T09:38:38;9.20;81.80
63017;DHT22;50274;45.640;11.756;2023-01-05T09:41:15;9.30;81.80
63017;DHT22;50274;45.640;11.756;2023-01-05T09:43:44;9.60;81.70
63017;DHT22;50274;45.640;11.756;2023-01-05T09:46:17;9.80;81.40
63017;DHT22;50274;45.640;11.756;2023-01-05T09:48:48;10.10;81.20
63017;DHT22;50274;45.640;11.756;2023-01-05T09:51:16;10.20;80.90
63017;DHT22;50274;45.640;11.756;2023-01-05T09:53:42;10.30;80.70
63017;DHT22;50274;45.640;11.756;2023-01-05T09:56:26;10.30;80.50
63017;DHT22;50274;45.640;11.756;2023-01-05T09:59:09;10.30;80.40
63017;DHT22;50274;45.640;11.756;2023-01-05T10:01:37;10.30;80.40
63017;DHT22;50274;45.640;11.756;2023-01-05T10:04:13;10.20;80.50
63017;DHT22;50274;45.640;11.756;2023-01-05T10:06:43;10.20;80.60
63017;DHT22;50274;45.640;11.756;2023-01-05T10:09:18;10.10;80.70
63017;DHT22;50274;45.640;11.756;2023-01-05T10:11:52;10.10;80.70
63017;DHT22;50274;45.640;11.756;2023-01-05T10:17:28;9.90;81.00
63017;DHT22;50274;45.640;11.756;2023-01-05T10:19:56;9.90;81.10
63017;DHT22;50274;45.640;11.756;2023-01-05T10:28:25;9.90;81.40
63017;DHT22;50274;45.640;11.756;2023-01-05T10:33:28;10.00;81.40
63017;DHT22;50274;45.640;11.756;2023-01-05T10:36:17;10.00;81.40
63017;DHT22;50274;45.640;11.756;2023-01-05T10:38:56;10.00;81.50
63017;DHT22;50274;45.640;11.756;2023-01-05T10:44:45;10.10;81.50
63017;DHT22;50274;45.640;11.756;2023-01-05T10:47:16;10.20;81.50
63017;DHT22;50274;45.640;11.756;2023-01-05T10:49:44;10.20;81.40
63017;DHT22;50274;45.640;11.756;2023-01-05T10:52:16;10.20;81.20
63017;DHT22;50274;45.640;11.756;2023-01-05T10:55:09;10.20;81.20
63017;DHT22;50274;45.640;11.756;2023-01-05T10:57:36;10.30;81.20
63017;DHT22;50274;45.640;11.756;2023-01-05T11:02:33;10.30;81.00
63017;DHT22;50274;45.640;11.756;2023-01-05T11:05:15;10.30;81.00
63017;DHT22;50274;45.640;11.756;2023-01-05T11:07:48;10.30;81.00
63017;DHT22;50274;45.640;11.756;2023-01-05T11:13:06;10.40;80.50
63017;DHT22;50274;45.640;11.756;2023-01-05T11:15:47;10.50;80.60
63017;DHT22;50274;45.640;11.756;2023-01-05T11:21:14;10.60;80.50
63017;DHT22;50274;45.640;11.756;2023-01-05T11:23:52;10.60;80.10
63017;DHT22;50274;45.640;11.756;2023-01-05T11:31:38;10.70;79.10
63017;DHT22;50274;45.640;11.756;2023-01-05T11:37:05;10.80;79.10
63017;DHT22;50274;45.640;11.756;2023-01-05T11:42:12;11.00;78.80
63017;DHT22;50274;45.640;11.756;2023-01-05T11:44:41;11.00;78.10
63017;DHT22;50274;45.640;11.756;2023-01-05T11:47:08;11.10;78.30
63017;DHT22;50274;45.640;11.756;2023-01-05T11:49:36;11.10;78.30
63017;DHT22;50274;45.640;11.756;2023-01-05T11:52:02;11.20;78.10
63017;DHT22;50274;45.640;11.756;2023-01-05T11:54:37;11.30;77.60
63017;DHT22;50274;45.640;11.756;2023-01-05T11:57:17;11.40;77.50
63017;DHT22;50274;45.640;11.756;2023-01-05T11:59:45;11.50;77.30
63017;DHT22;50274;45.640;11.756;2023-01-05T12:02:41;11.70;77.10
63017;DHT22;50274;45.640;11.756;2023-01-05T12:05:35;11.80;76.90
63017;DHT22;50274;45.640;11.756;2023-01-05T12:08:12;12.00;76.50
63017;DHT22;50274;45.640;11.756;2023-01-05T12:10:55;12.20;76.30
63017;DHT22;50274;45.640;11.756;2023-01-05T12:16:19;12.60;75.50
63017;DHT22;50274;45.640;11.756;2023-01-05T12:21:25;12.60;74.60
63017;DHT22;50274;45.640;11.756;2023-01-05T12:35:05;13.00;74.00
63017;DHT22;50274;45.640;11.756;2023-01-05T12:48:58;13.60;71.80
63017;DHT22;50274;45.640;11.756;2023-01-05T12:51:44;13.70;71.80
63017;DHT22;50274;45.640;11.756;2023-01-05T12:57:06;13.80;71.40
63017;DHT22;50274;45.640;11.756;2023-01-05T12:59:56;13.80;71.10
63017;DHT22;50274;45.640;11.756;2023-01-05T13:02:38;13.90;70.60
63017;DHT22;50274;45.640;11.756;2023-01-05T13:05:07;14.00;70.80
63017;DHT22;50274;45.640;11.756;2023-01-05T13:10:37;14.00;70.10
63017;DHT22;50274;45.640;11.756;2023-01-05T13:13:18;14.00;70.20
63017;DHT22;50274;45.640;11.756;2023-01-05T13:16:16;13.90;69.60
63017;DHT22;50274;45.640;11.756;2023-01-05T13:21:43;13.90;69.90
63017;DHT22;50274;45.640;11.756;2023-01-05T13:24:34;13.90;69.50
63017;DHT22;50274;45.640;11.756;2023-01-05T13:27:00;13.90;69.30
63017;DHT22;50274;45.640;11.756;2023-01-05T13:29:34;13.90;69.50
63017;DHT22;50274;45.640;11.756;2023-01-05T13:49:18;13.50;70.50
63017;DHT22;50274;45.640;11.756;2023-01-05T13:54:21;13.40;70.50
63017;DHT22;50274;45.640;11.756;2023-01-05T13:56:50;13.40;70.60
63017;DHT22;50274;45.640;11.756;2023-01-05T13:59:29;13.40;70.90
63017;DHT22;50274;45.640;11.756;2023-01-05T14:01:57;13.40;70.50
63017;DHT22;50274;45.640;11.756;2023-01-05T14:04:34;13.40;70.30
63017;DHT22;50274;45.640;11.756;2023-01-05T14:07:03;13.30;70.40
63017;DHT22;50274;45.640;11.756;2023-01-05T14:20:40;12.90;71.30
63017;DHT22;50274;45.640;11.756;2023-01-05T14:25:56;12.60;72.30
63017;DHT22;50274;45.640;11.756;2023-01-05T14:36:29;12.10;73.70
63017;DHT22;50274;45.640;11.756;2023-01-05T14:39:01;12.10;73.90
63017;DHT22;50274;45.640;11.756;2023-01-05T14:41:35;12.10;74.00
63017;DHT22;50274;45.640;11.756;2023-01-05T14:44:14;12.00;74.20
63017;DHT22;50274;45.640;11.756;2023-01-05T14:46:50;11.90;74.50
63017;DHT22;50274;45.640;11.756;2023-01-05T14:49:36;11.90;74.70
63017;DHT22;50274;45.640;11.756;2023-01-05T14:52:17;11.90;74.60
63017;DHT22;50274;45.640;11.756;2023-01-05T15:03:23;11.60;75.40
63017;DHT22;50274;45.640;11.756;2023-01-05T15:05:59;11.50;75.70
63017;DHT22;50274;45.640;11.756;2023-01-05T15:31:46;11.00;77.30
63017;DHT22;50274;45.640;11.756;2023-01-05T15:39:54;10.90;77.70
63017;DHT22;50274;45.640;11.756;2023-01-05T15:42:38;10.90;77.90
63017;DHT22;50274;45.640;11.756;2023-01-05T15:45:23;10.80;77.90
63017;DHT22;50274;45.640;11.756;2023-01-05T15:47:51;10.70;78.00
63017;DHT22;50274;45.640;11.756;2023-01-05T15:50:46;10.70;78.20
63017;DHT22;50274;45.640;11.756;2023-01-05T15:53:50;10.70;78.40
63017;DHT22;50274;45.640;11.756;2023-01-05T15:56:31;10.60;78.40
63017;DHT22;50274;45.640;11.756;2023-01-05T15:58:59;10.60;78.50
63017;DHT22;50274;45.640;11.756;2023-01-05T16:01:25;10.50;78.60
63017;DHT22;50274;45.640;11.756;2023-01-05T16:04:07;10.50;78.70
63017;DHT22;50274;45.640;11.756;2023-01-05T16:06:33;10.50;78.80
63017;DHT22;50274;45.640;11.756;2023-01-05T16:09:24;10.50;78.90
63017;DHT22;50274;45.640;11.756;2023-01-05T16:11:55;10.40;79.00
63017;DHT22;50274;45.640;11.756;2023-01-05T16:14:27;10.30;79.10
63017;DHT22;50274;45.640;11.756;2023-01-05T16:17:03;10.30;79.30
63017;DHT22;50274;45.640;11.756;2023-01-05T16:19:48;10.30;79.20
63017;DHT22;50274;45.640;11.756;2023-01-05T16:27:25;10.20;79.40
63017;DHT22;50274;45.640;11.756;2023-01-05T16:29:51;10.20;79.30
63017;DHT22;50274;45.640;11.756;2023-01-05T16:35:48;10.00;79.30
63017;DHT22;50274;45.640;11.756;2023-01-05T16:38:21;10.00;79.40
63017;DHT22;50274;45.640;11.756;2023-01-05T16:45:45;9.90;79.60
63017;DHT22;50274;45.640;11.756;2023-01-05T16:51:14;9.80;79.70
63017;DHT22;50274;45.640;11.756;2023-01-05T16:53:47;9.80;79.70
63017;DHT22;50274;45.640;11.756;2023-01-05T16:59:02;9.80;79.80
63017;DHT22;50274;45.640;11.756;2023-01-05T17:01:38;9.70;79.90
63017;DHT22;50274;45.640;11.756;2023-01-05T17:04:12;9.80;80.00
63017;DHT22;50274;45.640;11.756;2023-01-05T17:06:40;9.80;80.10
63017;DHT22;50274;45.640;11.756;2023-01-05T17:09:27;9.80;80.10
63017;DHT22;50274;45.640;11.756;2023-01-05T17:11:55;9.80;80.20
63017;DHT22;50274;45.640;11.756;2023-01-05T17:14:21;9.80;80.10
63017;DHT22;50274;45.640;11.756;2023-01-05T17:17:08;9.80;80.10
63017;DHT22;50274;45.640;11.756;2023-01-05T17:19:37;9.80;80.20
63017;DHT22;50274;45.640;11.756;2023-01-05T17:22:03;9.80;80.30
63017;DHT22;50274;45.640;11.756;2023-01-05T17:24:30;9.80;80.30
63017;DHT22;50274;45.640;11.756;2023-01-05T17:26:57;9.80;80.40
63017;DHT22;50274;45.640;11.756;2023-01-05T17:29:28;9.80;80.40
63017;DHT22;50274;45.640;11.756;2023-01-05T17:31:54;9.80;80.50
63017;DHT22;50274;45.640;11.756;2023-01-05T17:34:21;9.80;80.50
63017;DHT22;50274;45.640;11.756;2023-01-05T17:36:49;9.90;80.60
63017;DHT22;50274;45.640;11.756;2023-01-05T17:39:19;9.80;80.50
63017;DHT22;50274;45.640;11.756;2023-01-05T17:41:45;9.90;80.60
63017;DHT22;50274;45.640;11.756;2023-01-05T17:44:11;9.90;80.60
63017;DHT22;50274;45.640;11.756;2023-01-05T17:46:40;9.90;80.70
63017;DHT22;50274;45.640;11.756;2023-01-05T17:49:13;9.80;80.70
63017;DHT22;50274;45.640;11.756;2023-01-05T17:51:39;9.90;80.80
63017;DHT22;50274;45.640;11.756;2023-01-05T17:54:05;9.90;80.70
63017;DHT22;50274;45.640;11.756;2023-01-05T17:56:30;9.90;80.70
63017;DHT22;50274;45.640;11.756;2023-01-05T17:58:56;9.90;80.80
63017;DHT22;50274;45.640;11.756;2023-01-05T18:01:22;9.90;80.80
63017;DHT22;50274;45.640;11.756;2023-01-05T18:03:48;9.80;80.80
63017;DHT22;50274;45.640;11.756;2023-01-05T18:06:14;9.90;80.80
63017;DHT22;50274;45.640;11.756;2023-01-05T18:08:40;9.80;80.90
63017;DHT22;50274;45.640;11.756;2023-01-05T18:11:06;9.80;81.00
63017;DHT22;50274;45.640;11.756;2023-01-05T18:13:33;9.80;81.00
63017;DHT22;50274;45.640;11.756;2023-01-05T18:16:07;9.70;81.10
63017;DHT22;50274;45.640;11.756;2023-01-05T18:18:33;9.80;81.10
63017;DHT22;50274;45.640;11.756;2023-01-05T18:21:00;9.70;81.20
63017;DHT22;50274;45.640;11.756;2023-01-05T18:23:26;9.70;81.20
63017;DHT22;50274;45.640;11.756;2023-01-05T18:25:52;9.70;81.20
63017;DHT22;50274;45.640;11.756;2023-01-05T18:28:18;9.70;81.20
63017;DHT22;50274;45.640;11.756;2023-01-05T18:30:43;9.60;81.30
63017;DHT22;50274;45.640;11.756;2023-01-05T18:33:10;9.60;81.30
63017;DHT22;50274;45.640;11.756;2023-01-05T18:35:39;9.60;81.40
63017;DHT22;50274;45.640;11.756;2023-01-05T18:38:05;9.50;81.40
63017;DHT22;50274;45.640;11.756;2023-01-05T18:40:31;9.50;81.40
63017;DHT22;50274;45.640;11.756;2023-01-05T18:42:57;9.50;81.40
63017;DHT22;50274;45.640;11.756;2023-01-05T18:45:23;9.50;81.40
63017;DHT22;50274;45.640;11.756;2023-01-05T18:47:49;9.50;81.40
63017;DHT22;50274;45.640;11.756;2023-01-05T18:50:14;9.40;81.40
63017;DHT22;50274;45.640;11.756;2023-01-05T18:52:41;9.40;81.40
63017;DHT22;50274;45.640;11.756;2023-01-05T18:55:07;9.40;81.50
63017;DHT22;50274;45.640;11.756;2023-01-05T18:57:34;9.30;81.50
63017;DHT22;50274;45.640;11.756;2023-01-05T19:00:00;9.30;81.50
63017;DHT22;50274;45.640;11.756;2023-01-05T19:02:26;9.30;81.50